Time;durP1;ratioP1;P1;durP2;ratioP2;P2;SDS_P1;SDS_P2;PMS_P1;PMS_P2;Temp;Humidity;BMP_temperature;BMP_pressure;BME280_temperature;BME280_humidity;BME280_pressure;Samples;Min_cycle;Max_cycle;Signal;HPM_P1;HPM_P2
2021/04/21 01:21:25;;;;;;;43.58;28.30;;;;;;;;;;1438870;41;20440;-79
2021/04/21 01:22:29;;;;;;;38.58;27.40;;;;;;;;;;1440477;41;20437;-79
2021/04/21 01:23:49;;;;;;;40.00;27.05;;;;;;;;;;1438287;41;20563;-75
2021/04/21 01:25:20;;;;;;;37.45;27.13;;;;;;;;;;1440462;41;20442;-78
2021/04/21 01:26:21;;;;;;;40.10;28.83;;;;;;;;;;1439039;41;20828;-80
2021/04/21 01:27:33;;;;;;;40.05;28.30;;;;;;;;;;1441531;41;20410;-77
2021/04/21 01:28:35;;;;;;;38.03;27.90;;;;;;;;;;1441253;41;20429;-78
2021/04/21 01:29:38;;;;;;;46.20;33.00;;;;;;;;;;1440849;41;20438;-79
2021/04/21 01:30:42;;;;;;;41.92;29.42;;;;;;;;;;1443288;41;20416;-77
2021/04/21 01:31:45;;;;;;;43.50;30.40;;;;;;;;;;1444207;41;20420;-78
2021/04/21 01:32:48;;;;;;;45.15;31.45;;;;;;;;;;1444131;41;20491;-79
2021/04/21 01:33:52;;;;;;;45.05;31.52;;;;;;;;;;1446078;41;20431;-77
2021/04/21 01:34:54;;;;;;;51.92;33.58;;;;;;;;;;1445516;41;20415;-78
2021/04/21 01:36:01;;;;;;;46.78;32.55;;;;;;;;;;1441386;41;20433;-78
2021/04/21 01:37:04;;;;;;;47.45;34.20;;;;;;;;;;1438567;41;20468;-79
2021/04/21 01:38:05;;;;;;;47.20;34.38;;;;;;;;;;1441355;41;20453;-78
2021/04/21 01:39:07;;;;;;;52.88;35.65;;;;;;;;;;1441461;41;20445;-77
2021/04/21 01:40:09;;;;;;;53.85;36.58;;;;;;;;;;1445640;41;20778;-77
2021/04/21 01:41:13;;;;;;;52.92;36.22;;;;;;;;;;1441794;41;20840;-77
2021/04/21 01:42:16;;;;;;;51.33;36.13;;;;;;;;;;1441018;41;20460;-78
2021/04/21 01:43:19;;;;;;;53.10;36.78;;;;;;;;;;1445052;41;20448;-78
2021/04/21 01:44:40;;;;;;;54.50;38.17;;;;;;;;;;1446114;41;20420;-78
2021/04/21 01:45:41;;;;;;;62.80;38.58;;;;;;;;;;1443139;41;20433;-78
2021/04/21 01:46:45;;;;;;;54.95;37.78;;;;;;;;;;1436882;41;20569;-78
2021/04/21 01:47:48;;;;;;;57.50;38.20;;;;;;;;;;1439755;41;20426;-77
2021/04/21 01:48:50;;;;;;;56.55;38.45;;;;;;;;;;1441011;41;20481;-79
2021/04/21 01:50:03;;;;;;;58.30;39.38;;;;;;;;;;1445365;41;20950;-78
2021/04/21 01:51:26;;;;;;;57.13;39.55;;;;;;;;;;1445147;41;20428;-76
2021/04/21 01:52:33;;;;;;;56.78;39.00;;;;;;;;;;1441312;41;20417;-78
2021/04/21 01:53:37;;;;;;;60.78;39.45;;;;;;;;;;1440668;41;20521;-77
2021/04/21 01:54:41;;;;;;;57.30;40.50;;;;;;;;;;1440608;41;20425;-75
2021/04/21 01:55:46;;;;;;;59.95;40.95;;;;;;;;;;1440590;41;20486;-77
2021/04/21 01:57:05;;;;;;;61.33;41.75;;;;;;;;;;1440646;41;20398;-79
2021/04/21 01:58:12;;;;;;;63.03;42.90;;;;;;;;;;1443050;41;20804;-80
2021/04/21 01:59:40;;;;;;;63.22;41.78;;;;;;;;;;1445162;41;20893;-77
2021/04/21 02:00:41;;;;;;;58.17;40.72;;;;;;;;;;1430422;41;20598;-80
2021/04/21 02:01:54;;;;;;;60.65;42.25;;;;;;;;;;1439944;41;20800;-78
2021/04/21 02:03:07;;;;;;;57.83;40.85;;;;;;;;;;1442709;41;20419;-79
2021/04/21 02:04:27;;;;;;;62.15;42.75;;;;;;;;;;1445255;41;20439;-80
2021/04/21 02:05:54;;;;;;;58.55;41.58;;;;;;;;;;1445286;41;20415;-75
2021/04/21 02:06:59;;;;;;;58.72;41.03;;;;;;;;;;1426143;41;20511;-78
2021/04/21 02:08:10;;;;;;;60.45;40.80;;;;;;;;;;1441634;41;20876;-78
2021/04/21 09:32:50;;;;;;;57.63;39.58;;;;;;;;;;1445062;40;20483;-80
2021/04/21 09:34:12;;;;;;;55.60;36.35;;;;;;;;;;1442050;41;20424;-79
2021/04/21 09:35:21;;;;;;;54.50;35.72;;;;;;;;;;1445148;41;20503;-78
2021/04/21 09:36:39;;;;;;;57.15;37.50;;;;;;;;;;1440279;41;20429;-80
2021/04/21 09:37:40;;;;;;;57.83;34.60;;;;;;;;;;1437371;41;20437;-78
2021/04/21 09:38:41;;;;;;;53.60;36.30;;;;;;;;;;1442895;41;20414;-78
2021/04/21 09:39:45;;;;;;;55.28;35.28;;;;;;;;;;1445195;41;20446;-78
2021/04/21 09:40:56;;;;;;;51.85;34.40;;;;;;;;;;1448884;41;20426;-79
2021/04/21 09:41:58;;;;;;;51.83;34.25;;;;;;;;;;1447915;41;20521;-79
2021/04/21 09:55:40;;;;;;;49.50;36.30;;;;;;;;;;1443456;41;20889;-78
2021/04/21 09:56:41;;;;;;;47.67;34.95;;;;;;;;;;1445859;41;20439;-79
2021/04/21 09:57:42;;;;;;;46.95;35.55;;;;;;;;;;1442913;41;20486;-79
2021/04/21 09:58:56;;;;;;;49.03;33.85;;;;;;;;;;1445945;41;20427;-79
2021/04/21 10:00:05;;;;;;;47.08;33.17;;;;;;;;;;1444436;41;20788;-77
2021/04/21 10:01:18;;;;;;;47.00;33.92;;;;;;;;;;1444681;41;21726;-79
2021/04/21 10:02:29;;;;;;;46.53;33.42;;;;;;;;;;1446283;41;20416;-80
2021/04/21 10:03:31;;;;;;;47.08;33.38;;;;;;;;;;1446382;41;20423;-77
2021/04/21 10:04:32;;;;;;;43.78;33.20;;;;;;;;;;1442202;41;20418;-80
2021/04/21 10:05:35;;;;;;;45.58;33.15;;;;;;;;;;1445734;41;20471;-77
2021/04/21 10:06:56;;;;;;;45.58;32.47;;;;;;;;;;1449665;41;20414;-82
2021/04/21 10:08:16;;;;;;;43.35;32.58;;;;;;;;;;1443373;41;20444;-79
2021/04/21 10:09:31;;;;;;;44.10;32.22;;;;;;;;;;1447070;41;20423;-80
2021/04/21 10:10:32;;;;;;;44.28;33.20;;;;;;;;;;1445746;41;20427;-79
2021/04/21 10:11:33;;;;;;;41.50;31.13;;;;;;;;;;1449884;41;20573;-78
2021/04/21 10:12:36;;;;;;;46.45;32.15;;;;;;;;;;1449466;41;20449;-77
2021/04/21 10:13:42;;;;;;;41.22;31.70;;;;;;;;;;1448756;41;20430;-79
2021/04/21 10:14:46;;;;;;;44.45;30.85;;;;;;;;;;1450117;41;20424;-80
2021/04/21 10:15:50;;;;;;;46.05;32.33;;;;;;;;;;1450414;41;20432;-79
2021/04/21 10:16:51;;;;;;;45.13;31.77;;;;;;;;;;1449463;41;20439;-81
2021/04/21 10:17:52;;;;;;;46.50;32.28;;;;;;;;;;1445823;41;20471;-78
2021/04/21 10:18:53;;;;;;;43.95;32.63;;;;;;;;;;1444817;41;20439;-78
2021/04/21 10:20:00;;;;;;;46.85;34.05;;;;;;;;;;1446086;41;20434;-78
2021/04/21 10:21:01;;;;;;;45.55;32.40;;;;;;;;;;1446615;41;20470;-77
2021/04/21 10:22:05;;;;;;;46.25;32.33;;;;;;;;;;1441625;41;20432;-78
2021/04/21 10:23:07;;;;;;;42.63;30.80;;;;;;;;;;1441683;41;20414;-78
2021/04/21 10:24:08;;;;;;;40.83;30.85;;;;;;;;;;1445174;41;20431;-80
2021/04/21 10:25:10;;;;;;;42.05;30.92;;;;;;;;;;1444767;41;21084;-77
2021/04/21 10:26:12;;;;;;;42.20;30.73;;;;;;;;;;1443061;41;20419;-78
2021/04/21 10:27:16;;;;;;;46.08;31.73;;;;;;;;;;1445074;41;20451;-79
2021/04/21 10:28:18;;;;;;;41.42;30.30;;;;;;;;;;1445695;41;20451;-80
2021/04/21 10:29:20;;;;;;;42.83;30.42;;;;;;;;;;1445294;41;20416;-79
2021/04/21 10:30:21;;;;;;;45.40;29.33;;;;;;;;;;1444479;41;20412;-78
2021/04/21 10:31:23;;;;;;;42.80;30.83;;;;;;;;;;1445012;41;20516;-79
2021/04/21 10:32:24;;;;;;;40.00;28.92;;;;;;;;;;1445038;41;20762;-78
2021/04/21 10:33:26;;;;;;;37.28;28.55;;;;;;;;;;1443821;41;20412;-78
2021/04/21 10:34:27;;;;;;;39.72;28.80;;;;;;;;;;1449201;41;20425;-82
2021/04/21 10:35:29;;;;;;;40.43;28.80;;;;;;;;;;1449106;41;20473;-81
2021/04/21 10:36:30;;;;;;;40.17;28.70;;;;;;;;;;1441168;41;20711;-84
2021/04/21 10:37:34;;;;;;;37.30;27.55;;;;;;;;;;1441324;41;20417;-81
2021/04/21 10:38:40;;;;;;;40.08;28.27;;;;;;;;;;1441710;41;20449;-83
2021/04/21 10:39:43;;;;;;;38.42;28.23;;;;;;;;;;1440844;41;20495;-82
2021/04/21 10:40:44;;;;;;;36.13;27.75;;;;;;;;;;1446638;41;20430;-86
2021/04/21 10:42:00;;;;;;;40.63;29.30;;;;;;;;;;1445736;41;21342;-84
2021/04/21 10:43:03;;;;;;;45.60;29.15;;;;;;;;;;1445785;41;20424;-82
2021/04/21 10:44:13;;;;;;;34.38;25.75;;;;;;;;;;1441600;41;21106;-82
2021/04/21 10:45:16;;;;;;;37.50;26.63;;;;;;;;;;1442129;41;20417;-83
2021/04/21 10:46:17;;;;;;;39.58;27.48;;;;;;;;;;1445409;41;20448;-82
2021/04/21 10:47:24;;;;;;;40.33;26.30;;;;;;;;;;1441605;41;20449;-82
2021/04/21 10:48:52;;;;;;;38.37;26.13;;;;;;;;;;1443401;41;21300;-81
2021/04/21 10:49:56;;;;;;;32.50;24.65;;;;;;;;;;1441246;41;20503;-86
2021/04/21 10:51:00;;;;;;;34.83;25.13;;;;;;;;;;1443506;41;20425;-83
2021/04/21 10:52:10;;;;;;;35.05;22.48;;;;;;;;;;1445524;41;20427;-83
2021/04/21 10:53:22;;;;;;;32.03;22.13;;;;;;;;;;1446318;41;20424;-84
2021/04/21 10:54:31;;;;;;;35.22;22.02;;;;;;;;;;1446303;41;20444;-82
2021/04/21 10:55:34;;;;;;;32.42;22.10;;;;;;;;;;1441213;41;20747;-82
2021/04/21 10:56:36;;;;;;;32.25;22.48;;;;;;;;;;1442441;41;20509;-82
2021/04/21 10:57:40;;;;;;;34.30;23.70;;;;;;;;;;1441687;41;20425;-82
2021/04/21 10:58:52;;;;;;;32.35;22.77;;;;;;;;;;1442195;41;20692;-84
2021/04/21 11:00:05;;;;;;;30.50;21.38;;;;;;;;;;1441795;41;20433;-81
2021/04/21 11:01:26;;;;;;;27.30;21.30;;;;;;;;;;1441391;41;20410;-84
2021/04/21 11:02:39;;;;;;;26.08;20.30;;;;;;;;;;1439626;41;20434;-83
2021/04/21 11:03:41;;;;;;;27.55;21.73;;;;;;;;;;1445586;41;20499;-83
2021/04/21 11:05:03;;;;;;;26.05;20.98;;;;;;;;;;1445260;41;21157;-82
2021/04/21 11:06:04;;;;;;;27.20;19.98;;;;;;;;;;1441867;41;20947;-82
2021/04/21 11:07:25;;;;;;;25.27;19.40;;;;;;;;;;1441524;41;21106;-82
2021/04/21 11:08:30;;;;;;;24.95;19.27;;;;;;;;;;1443774;41;20429;-82
2021/04/21 11:09:50;;;;;;;24.42;17.02;;;;;;;;;;1441984;41;20443;-82
2021/04/21 11:10:54;;;;;;;22.33;16.92;;;;;;;;;;1444623;41;20427;-83
2021/04/21 11:11:55;;;;;;;21.48;14.95;;;;;;;;;;1443560;41;20435;-82
2021/04/21 11:12:56;;;;;;;19.15;13.52;;;;;;;;;;1438671;41;20435;-83
2021/04/21 11:13:57;;;;;;;18.23;12.05;;;;;;;;;;1442184;41;20417;-82
2021/04/21 11:14:59;;;;;;;17.65;12.80;;;;;;;;;;1445274;41;20423;-82
2021/04/21 11:16:05;;;;;;;18.52;12.88;;;;;;;;;;1440931;41;20441;-83
2021/04/21 11:17:07;;;;;;;16.33;11.48;;;;;;;;;;1445269;41;20832;-83
2021/04/21 11:18:27;;;;;;;14.55;10.07;;;;;;;;;;1447071;41;20706;-82
2021/04/21 11:19:30;;;;;;;16.23;10.90;;;;;;;;;;1443737;41;20466;-81
2021/04/21 11:20:47;;;;;;;13.18;10.05;;;;;;;;;;1439587;41;20415;-84
2021/04/21 11:22:09;;;;;;;14.82;10.55;;;;;;;;;;1442288;41;20794;-81
2021/04/21 11:23:29;;;;;;;14.45;10.02;;;;;;;;;;1445870;41;20424;-82
2021/04/21 11:24:30;;;;;;;15.45;9.82;;;;;;;;;;1445510;41;20444;-81
2021/04/21 11:25:31;;;;;;;16.05;7.07;;;;;;;;;;1445359;41;20420;-82
2021/04/21 11:26:32;;;;;;;12.90;4.18;;;;;;;;;;1446092;41;20427;-82
2021/04/21 11:27:39;;;;;;;12.93;4.50;;;;;;;;;;1445619;41;20825;-82
2021/04/21 11:28:53;;;;;;;10.43;4.18;;;;;;;;;;1444792;41;20431;-83
2021/04/21 11:29:54;;;;;;;9.98;4.20;;;;;;;;;;1445454;41;20826;-82
2021/04/21 11:30:55;;;;;;;10.63;3.33;;;;;;;;;;1449445;41;20402;-82
2021/04/21 11:31:57;;;;;;;13.05;4.28;;;;;;;;;;1449379;41;20437;-82
2021/04/21 11:32:58;;;;;;;14.68;3.97;;;;;;;;;;1448550;41;20452;-83
2021/04/21 11:33:59;;;;;;;13.35;3.33;;;;;;;;;;1448982;41;21028;-83
2021/04/21 11:35:20;;;;;;;11.05;3.80;;;;;;;;;;1445873;41;20801;-82
2021/04/21 11:36:35;;;;;;;11.47;3.43;;;;;;;;;;1443273;41;20479;-82
2021/04/21 11:37:42;;;;;;;10.23;3.58;;;;;;;;;;1448297;41;20422;-83
2021/04/21 11:38:45;;;;;;;8.48;3.35;;;;;;;;;;1448408;41;20425;-82
2021/04/21 11:39:58;;;;;;;12.40;4.10;;;;;;;;;;1448888;41;20548;-82
2021/04/21 11:41:19;;;;;;;9.13;2.63;;;;;;;;;;1444742;41;20784;-82
2021/04/21 11:42:40;;;;;;;10.32;3.40;;;;;;;;;;1445083;41;20677;-82
2021/04/21 11:43:41;;;;;;;11.20;3.47;;;;;;;;;;1445367;41;20416;-82
2021/04/21 11:44:56;;;;;;;10.48;2.75;;;;;;;;;;1445219;41;20968;-80
2021/04/21 11:45:57;;;;;;;12.00;3.60;;;;;;;;;;1444969;41;20558;-82
2021/04/21 11:46:58;;;;;;;12.13;2.90;;;;;;;;;;1444784;41;20420;-82
2021/04/21 11:48:00;;;;;;;11.73;2.85;;;;;;;;;;1443599;41;20511;-82
2021/04/21 11:49:02;;;;;;;10.98;3.03;;;;;;;;;;1444962;41;20500;-82
2021/04/21 11:50:04;;;;;;;11.25;2.65;;;;;;;;;;1445880;41;20416;-82
2021/04/21 11:51:15;;;;;;;20.90;3.38;;;;;;;;;;1445712;41;20418;-82
2021/04/21 11:52:35;;;;;;;12.55;2.85;;;;;;;;;;1446193;41;20420;-84
2021/04/21 11:53:36;;;;;;;13.25;2.80;;;;;;;;;;1447339;41;20464;-81
2021/04/21 11:54:37;;;;;;;12.00;2.10;;;;;;;;;;1442535;41;20532;-83
2021/04/21 11:55:44;;;;;;;11.73;2.83;;;;;;;;;;1445022;41;20410;-82
2021/04/21 11:56:45;;;;;;;16.00;2.67;;;;;;;;;;1451253;41;20430;-81
2021/04/21 11:58:05;;;;;;;13.77;2.45;;;;;;;;;;1451193;41;20466;-82
2021/04/21 11:59:07;;;;;;;12.23;3.47;;;;;;;;;;1453800;41;20426;-87
2021/04/21 12:00:09;;;;;;;14.32;2.60;;;;;;;;;;1455611;40;20414;-81
2021/04/21 12:01:11;;;;;;;16.40;3.03;;;;;;;;;;1447365;41;20533;-87
2021/04/21 12:02:16;;;;;;;11.45;2.13;;;;;;;;;;1446528;41;20419;-84
2021/04/21 12:03:20;;;;;;;12.68;2.70;;;;;;;;;;1447583;41;21104;-84
2021/04/21 12:04:22;;;;;;;17.88;3.05;;;;;;;;;;1446908;41;20411;-80
2021/04/21 12:05:25;;;;;;;14.25;2.80;;;;;;;;;;1447694;41;20419;-80
2021/04/21 12:06:30;;;;;;;12.25;2.45;;;;;;;;;;1444854;41;20537;-82
2021/04/21 12:07:31;;;;;;;12.90;2.42;;;;;;;;;;1450043;41;20418;-84
2021/04/21 12:08:33;;;;;;;12.73;2.58;;;;;;;;;;1445370;41;20423;-85
2021/04/21 12:09:35;;;;;;;17.05;2.75;;;;;;;;;;1441051;41;20434;-81
2021/04/21 12:10:37;;;;;;;14.93;2.33;;;;;;;;;;1449477;41;20875;-81
2021/04/21 12:11:38;;;;;;;14.38;2.42;;;;;;;;;;1449382;41;20437;-79
2021/04/21 12:12:39;;;;;;;13.90;2.30;;;;;;;;;;1441364;41;21190;-80
2021/04/21 12:13:41;;;;;;;13.98;2.40;;;;;;;;;;1441737;41;20696;-81
2021/04/21 12:14:43;;;;;;;15.68;3.10;;;;;;;;;;1445914;41;20421;-80
2021/04/21 12:15:46;;;;;;;14.50;2.28;;;;;;;;;;1446102;41;20742;-81
2021/04/21 12:16:47;;;;;;;16.17;2.87;;;;;;;;;;1445589;41;20440;-82
2021/04/21 12:17:53;;;;;;;16.85;2.72;;;;;;;;;;1447096;41;20430;-81
2021/04/21 12:18:57;;;;;;;16.88;3.05;;;;;;;;;;1446924;41;20436;-80
2021/04/21 12:20:00;;;;;;;14.10;2.17;;;;;;;;;;1449665;41;20419;-82
2021/04/21 12:21:03;;;;;;;16.58;2.40;;;;;;;;;;1448715;41;20448;-81
2021/04/21 12:22:04;;;;;;;18.02;2.88;;;;;;;;;;1443833;41;20429;-81
2021/04/21 12:23:05;;;;;;;12.13;2.67;;;;;;;;;;1448981;41;20427;-81
2021/04/21 12:24:07;;;;;;;13.75;2.70;;;;;;;;;;1451535;41;20410;-80
2021/04/21 12:25:09;;;;;;;16.38;2.95;;;;;;;;;;1447872;41;20855;-80
2021/04/21 12:26:18;;;;;;;18.85;2.97;;;;;;;;;;1448333;41;20424;-79
2021/04/21 12:27:29;;;;;;;17.23;3.00;;;;;;;;;;1445306;41;20421;-81
2021/04/21 12:28:46;;;;;;;19.58;2.45;;;;;;;;;;1442892;41;20426;-81
2021/04/21 12:29:47;;;;;;;14.18;2.75;;;;;;;;;;1444136;41;20443;-81
2021/04/21 12:30:53;;;;;;;15.43;2.15;;;;;;;;;;1449148;41;20543;-82
2021/04/21 12:31:55;;;;;;;12.30;2.72;;;;;;;;;;1446057;41;20448;-80
2021/04/21 12:33:05;;;;;;;11.80;2.20;;;;;;;;;;1445816;41;20496;-82
2021/04/21 12:34:11;;;;;;;16.65;2.38;;;;;;;;;;1441596;41;20438;-81
2021/04/21 12:35:14;;;;;;;18.10;3.50;;;;;;;;;;1441842;41;20406;-80
2021/04/21 12:36:16;;;;;;;16.70;2.95;;;;;;;;;;1443260;41;20629;-81
2021/04/21 12:37:21;;;;;;;11.80;2.53;;;;;;;;;;1445128;41;20424;-81
2021/04/21 12:38:30;;;;;;;14.55;2.35;;;;;;;;;;1445725;41;20726;-81
2021/04/21 12:39:42;;;;;;;16.88;2.50;;;;;;;;;;1445651;41;20530;-82
2021/04/21 12:40:44;;;;;;;14.90;1.80;;;;;;;;;;1449948;41;20451;-81
2021/04/21 12:41:52;;;;;;;13.93;2.70;;;;;;;;;;1449125;41;21202;-81
2021/04/21 12:43:06;;;;;;;13.98;2.53;;;;;;;;;;1445840;41;20439;-81
2021/04/21 12:44:22;;;;;;;15.27;2.70;;;;;;;;;;1445473;41;20416;-81
2021/04/21 12:45:27;;;;;;;15.23;3.00;;;;;;;;;;1445536;41;20411;-82
2021/04/21 12:46:37;;;;;;;14.32;2.30;;;;;;;;;;1446708;41;20409;-81
2021/04/21 12:47:55;;;;;;;11.05;2.55;;;;;;;;;;1450383;41;20705;-80
2021/04/21 12:48:56;;;;;;;14.98;2.63;;;;;;;;;;1449834;41;20446;-80
2021/04/21 12:50:07;;;;;;;13.85;3.17;;;;;;;;;;1446522;41;20448;-80
2021/04/21 12:51:15;;;;;;;17.00;2.73;;;;;;;;;;1446775;41;20443;-80
2021/04/21 12:52:17;;;;;;;16.13;3.17;;;;;;;;;;1447148;41;20413;-80
2021/04/21 12:53:20;;;;;;;16.95;3.03;;;;;;;;;;1446038;41;20429;-80
2021/04/21 12:54:34;;;;;;;19.58;3.90;;;;;;;;;;1445174;41;20440;-81
2021/04/21 12:55:35;;;;;;;17.17;3.10;;;;;;;;;;1451125;41;20446;-80
2021/04/21 12:56:36;;;;;;;15.82;3.20;;;;;;;;;;1449010;41;20796;-80
2021/04/21 12:57:49;;;;;;;15.82;3.05;;;;;;;;;;1447452;41;20502;-80
2021/04/21 12:58:51;;;;;;;17.20;3.00;;;;;;;;;;1443079;41;20434;-80
2021/04/21 12:59:53;;;;;;;16.70;3.25;;;;;;;;;;1446893;41;20428;-79
2021/04/21 13:01:11;;;;;;;20.33;3.08;;;;;;;;;;1450502;41;20441;-80
2021/04/21 13:02:17;;;;;;;19.35;3.38;;;;;;;;;;1441920;41;20662;-80
2021/04/21 13:03:19;;;;;;;16.30;2.53;;;;;;;;;;1442176;41;20466;-80
2021/04/21 13:04:20;;;;;;;16.33;3.35;;;;;;;;;;1444975;41;20434;-80
2021/04/21 13:05:40;;;;;;;18.10;2.92;;;;;;;;;;1444909;41;20423;-80
2021/04/21 13:06:45;;;;;;;15.02;2.90;;;;;;;;;;1443080;41;20451;-81
2021/04/21 13:07:46;;;;;;;17.73;3.55;;;;;;;;;;1445484;41;20525;-80
2021/04/21 13:08:47;;;;;;;18.50;2.80;;;;;;;;;;1444180;41;21550;-80
2021/04/21 13:09:50;;;;;;;16.75;3.35;;;;;;;;;;1440259;41;20433;-81
2021/04/21 13:10:52;;;;;;;17.65;2.13;;;;;;;;;;1441229;41;20453;-80
2021/04/21 13:12:00;;;;;;;14.07;3.10;;;;;;;;;;1445172;41;20420;-79
2021/04/21 13:13:01;;;;;;;16.77;3.50;;;;;;;;;;1445234;41;20420;-82
2021/04/21 13:14:04;;;;;;;16.17;2.95;;;;;;;;;;1441321;41;20439;-81
2021/04/21 13:15:16;;;;;;;15.35;3.10;;;;;;;;;;1440961;41;20421;-81
2021/04/21 13:16:25;;;;;;;17.98;3.22;;;;;;;;;;1438243;41;20700;-81
2021/04/21 13:17:44;;;;;;;19.80;2.90;;;;;;;;;;1441458;41;20429;-82
2021/04/21 13:18:45;;;;;;;13.63;2.80;;;;;;;;;;1445133;41;21215;-83
2021/04/21 13:19:51;;;;;;;15.60;2.80;;;;;;;;;;1444609;41;20424;-82
2021/04/21 13:21:06;;;;;;;17.58;3.50;;;;;;;;;;1443622;41;20523;-82
2021/04/21 13:22:12;;;;;;;16.33;3.78;;;;;;;;;;1444972;41;20745;-81
2021/04/21 13:23:14;;;;;;;15.45;3.30;;;;;;;;;;1443911;41;21050;-82
2021/04/21 13:24:16;;;;;;;12.35;2.72;;;;;;;;;;1447267;41;20415;-83
2021/04/21 13:25:19;;;;;;;13.50;2.65;;;;;;;;;;1445820;41;20431;-83
2021/04/21 13:26:21;;;;;;;14.88;2.35;;;;;;;;;;1445173;41;20424;-83
2021/04/21 13:27:22;;;;;;;15.40;2.80;;;;;;;;;;1449074;41;20414;-82
2021/04/21 13:28:30;;;;;;;27.60;4.22;;;;;;;;;;1448973;41;20437;-82
2021/04/21 13:29:33;;;;;;;17.13;3.40;;;;;;;;;;1445815;41;20507;-83
2021/04/21 13:30:34;;;;;;;15.18;3.40;;;;;;;;;;1448571;41;21182;-82
2021/04/21 13:31:35;;;;;;;19.50;3.53;;;;;;;;;;1448688;41;20436;-82
2021/04/21 13:32:37;;;;;;;14.13;2.63;;;;;;;;;;1444680;41;20440;-79
2021/04/21 13:33:40;;;;;;;22.67;4.20;;;;;;;;;;1439939;41;20445;-79
2021/04/21 13:34:43;;;;;;;17.92;3.10;;;;;;;;;;1440691;41;20409;-80
2021/04/21 13:35:44;;;;;;;14.65;3.15;;;;;;;;;;1445594;41;20400;-81
2021/04/21 13:36:46;;;;;;;19.27;3.40;;;;;;;;;;1445072;41;20447;-81
2021/04/21 13:37:49;;;;;;;16.00;2.25;;;;;;;;;;1445077;41;20454;-80
2021/04/21 13:38:51;;;;;;;16.27;3.50;;;;;;;;;;1445027;41;20428;-81
2021/04/21 13:39:59;;;;;;;14.68;4.00;;;;;;;;;;1445975;41;20428;-80
2021/04/21 13:41:00;;;;;;;13.15;3.58;;;;;;;;;;1441499;41;20440;-80
2021/04/21 13:42:01;;;;;;;15.33;3.07;;;;;;;;;;1437438;41;20583;-80
2021/04/21 13:43:02;;;;;;;15.20;2.88;;;;;;;;;;1441205;41;20410;-79
2021/04/21 13:44:03;;;;;;;19.27;3.63;;;;;;;;;;1445453;41;20496;-81
2021/04/21 13:45:05;;;;;;;13.73;3.22;;;;;;;;;;1444341;41;20913;-79
2021/04/21 13:46:07;;;;;;;22.77;4.38;;;;;;;;;;1444398;41;20442;-79
2021/04/21 13:47:08;;;;;;;15.73;3.28;;;;;;;;;;1445111;41;20427;-80
2021/04/21 13:48:09;;;;;;;18.60;3.10;;;;;;;;;;1445544;41;20731;-80
2021/04/21 13:49:10;;;;;;;16.23;3.08;;;;;;;;;;1442210;41;20527;-80
2021/04/21 13:50:14;;;;;;;17.33;3.78;;;;;;;;;;1444447;41;20427;-79
2021/04/21 13:51:15;;;;;;;19.42;2.92;;;;;;;;;;1447813;41;20439;-80
2021/04/21 13:52:16;;;;;;;24.25;3.40;;;;;;;;;;1450029;41;20404;-80
2021/04/21 13:53:17;;;;;;;19.13;4.13;;;;;;;;;;1450000;41;20739;-80
2021/04/21 13:54:18;;;;;;;22.05;3.88;;;;;;;;;;1449719;41;20416;-80
2021/04/21 13:55:19;;;;;;;16.40;3.72;;;;;;;;;;1443436;41;20422;-80
2021/04/21 13:56:20;;;;;;;17.92;3.22;;;;;;;;;;1433569;41;20447;-79
2021/04/21 13:57:26;;;;;;;17.48;4.13;;;;;;;;;;1434002;41;20409;-79
2021/04/21 13:58:30;;;;;;;16.92;4.55;;;;;;;;;;1437854;41;20682;-80
2021/04/21 13:59:31;;;;;;;19.88;3.40;;;;;;;;;;1437954;41;20739;-79
2021/04/21 14:00:32;;;;;;;18.80;4.47;;;;;;;;;;1441792;41;20532;-80
2021/04/21 14:01:34;;;;;;;11.88;3.50;;;;;;;;;;1439277;41;20457;-80
2021/04/21 14:02:39;;;;;;;17.60;3.72;;;;;;;;;;1443377;41;20509;-79
2021/04/21 14:03:44;;;;;;;19.40;3.70;;;;;;;;;;1438245;41;20438;-81
2021/04/21 14:04:45;;;;;;;15.85;3.90;;;;;;;;;;1440893;41;20451;-80
2021/04/21 14:05:46;;;;;;;16.88;3.03;;;;;;;;;;1439563;41;20524;-80
2021/04/21 14:06:47;;;;;;;16.10;3.55;;;;;;;;;;1445330;41;20446;-80
2021/04/21 14:07:48;;;;;;;23.85;4.53;;;;;;;;;;1444383;41;20416;-81
2021/04/21 14:08:49;;;;;;;16.90;3.38;;;;;;;;;;1441999;41;20425;-80
2021/04/21 14:09:51;;;;;;;18.50;4.15;;;;;;;;;;1440417;41;20436;-82
2021/04/21 14:10:52;;;;;;;22.02;3.70;;;;;;;;;;1441265;41;20722;-80
2021/04/21 14:11:54;;;;;;;17.90;4.38;;;;;;;;;;1440847;41;20430;-81
2021/04/21 14:12:55;;;;;;;21.17;4.60;;;;;;;;;;1441503;41;20414;-81
2021/04/21 14:13:56;;;;;;;20.95;4.53;;;;;;;;;;1442065;41;20429;-81
2021/04/21 14:14:58;;;;;;;14.70;3.42;;;;;;;;;;1441420;41;20409;-81
2021/04/21 14:15:59;;;;;;;18.02;3.83;;;;;;;;;;1440521;41;20463;-81
2021/04/21 14:17:00;;;;;;;16.58;2.95;;;;;;;;;;1441275;41;20437;-81
2021/04/21 14:18:01;;;;;;;18.35;3.50;;;;;;;;;;1439388;41;20441;-82
2021/04/21 14:19:03;;;;;;;14.02;3.00;;;;;;;;;;1437340;41;20522;-81
2021/04/21 14:20:05;;;;;;;14.70;3.85;;;;;;;;;;1437046;41;20439;-82
2021/04/21 14:21:07;;;;;;;19.00;3.42;;;;;;;;;;1440398;41;20730;-80
2021/04/21 14:22:09;;;;;;;18.60;3.85;;;;;;;;;;1439422;41;20443;-80
2021/04/21 14:23:10;;;;;;;17.25;3.10;;;;;;;;;;1440379;41;20440;-81
2021/04/21 14:24:11;;;;;;;19.33;4.28;;;;;;;;;;1441090;41;20409;-80
2021/04/21 14:25:14;;;;;;;15.82;3.22;;;;;;;;;;1441356;41;20409;-82
2021/04/21 14:26:18;;;;;;;13.15;3.38;;;;;;;;;;1438535;41;20551;-82
2021/04/21 14:27:20;;;;;;;17.00;4.10;;;;;;;;;;1442121;41;20429;-80
2021/04/21 14:28:21;;;;;;;17.13;3.05;;;;;;;;;;1437720;41;20510;-82
2021/04/21 14:29:23;;;;;;;16.27;3.47;;;;;;;;;;1437950;41;20445;-79
2021/04/21 14:30:25;;;;;;;14.98;3.17;;;;;;;;;;1442156;41;20421;-81
2021/04/21 14:31:26;;;;;;;18.05;3.28;;;;;;;;;;1441900;41;20441;-80
2021/04/21 14:32:27;;;;;;;15.48;3.17;;;;;;;;;;1438763;41;20438;-79
2021/04/21 14:33:29;;;;;;;15.68;2.78;;;;;;;;;;1438025;41;21203;-80
2021/04/21 14:34:30;;;;;;;16.38;3.97;;;;;;;;;;1441730;41;20429;-80
2021/04/21 14:35:31;;;;;;;21.33;4.72;;;;;;;;;;1438800;41;20419;-81
2021/04/21 14:36:32;;;;;;;13.65;2.90;;;;;;;;;;1442719;41;20429;-81
2021/04/21 14:37:33;;;;;;;12.03;3.63;;;;;;;;;;1444981;41;20558;-81
2021/04/21 14:38:35;;;;;;;15.18;3.67;;;;;;;;;;1444721;41;20421;-80
2021/04/21 14:39:35;;;;;;;19.23;3.10;;;;;;;;;;1442991;41;21080;-79
2021/04/21 14:40:37;;;;;;;11.63;3.10;;;;;;;;;;1443367;41;20465;-80
2021/04/21 14:41:40;;;;;;;14.23;3.63;;;;;;;;;;1446140;41;20417;-81
2021/04/21 14:42:41;;;;;;;14.38;3.17;;;;;;;;;;1444873;41;20416;-79
2021/04/21 14:43:42;;;;;;;13.40;3.75;;;;;;;;;;1444374;41;20425;-81
2021/04/21 14:44:43;;;;;;;15.15;3.05;;;;;;;;;;1446172;41;20438;-83
2021/04/21 14:45:47;;;;;;;16.17;3.30;;;;;;;;;;1445604;41;20480;-82
2021/04/21 14:46:54;;;;;;;17.63;3.65;;;;;;;;;;1441708;41;20636;-81
2021/04/21 14:47:56;;;;;;;17.30;4.00;;;;;;;;;;1447420;41;20417;-80
2021/04/21 14:49:01;;;;;;;20.10;3.25;;;;;;;;;;1449458;41;20503;-80
2021/04/21 14:50:03;;;;;;;14.48;3.35;;;;;;;;;;1446534;41;20442;-82
2021/04/21 14:51:04;;;;;;;20.13;3.63;;;;;;;;;;1446599;41;20469;-80
2021/04/21 14:52:05;;;;;;;15.02;3.25;;;;;;;;;;1446482;41;20478;-80
2021/04/21 14:53:07;;;;;;;15.23;2.85;;;;;;;;;;1443826;41;20868;-81
2021/04/21 14:54:08;;;;;;;16.83;3.58;;;;;;;;;;1441877;41;20454;-81
2021/04/21 14:55:10;;;;;;;13.95;2.88;;;;;;;;;;1436641;41;20434;-80
2021/04/21 14:56:12;;;;;;;15.17;3.83;;;;;;;;;;1438688;41;20541;-81
2021/04/21 14:57:14;;;;;;;17.45;3.47;;;;;;;;;;1438621;41;20445;-81
2021/04/21 14:58:18;;;;;;;15.18;4.05;;;;;;;;;;1438101;41;20452;-82
2021/04/21 14:59:19;;;;;;;14.68;3.28;;;;;;;;;;1437254;41;20437;-81
2021/04/21 15:00:20;;;;;;;13.45;3.22;;;;;;;;;;1435609;41;20453;-82
2021/04/21 15:01:21;;;;;;;11.23;4.50;;;;;;;;;;1438491;41;21139;-82
2021/04/21 15:02:23;;;;;;;15.75;3.33;;;;;;;;;;1439763;41;20435;-81
2021/04/21 15:03:24;;;;;;;13.80;3.58;;;;;;;;;;1431457;41;20439;-84
2021/04/21 15:04:25;;;;;;;15.93;3.58;;;;;;;;;;1435483;41;20545;-81
2021/04/21 15:05:26;;;;;;;17.20;3.45;;;;;;;;;;1438570;41;20431;-82
2021/04/21 15:06:28;;;;;;;13.20;3.50;;;;;;;;;;1435526;41;20436;-80
2021/04/21 15:07:33;;;;;;;17.20;4.10;;;;;;;;;;1430211;41;20427;-79
2021/04/21 15:08:34;;;;;;;14.18;3.22;;;;;;;;;;1431515;41;20827;-80
2021/04/21 15:09:37;;;;;;;17.80;3.65;;;;;;;;;;1434938;41;20425;-79
2021/04/21 15:10:38;;;;;;;18.63;3.85;;;;;;;;;;1435292;41;20437;-81
2021/04/21 15:11:40;;;;;;;21.40;3.78;;;;;;;;;;1434760;41;20484;-80
2021/04/21 15:12:41;;;;;;;16.92;3.58;;;;;;;;;;1435277;41;21042;-81
2021/04/21 15:13:42;;;;;;;22.23;3.88;;;;;;;;;;1434546;41;21308;-81
2021/04/21 15:14:45;;;;;;;16.73;3.22;;;;;;;;;;1430153;41;20447;-82
2021/04/21 15:15:46;;;;;;;13.90;3.15;;;;;;;;;;1429701;41;20562;-80
2021/04/21 15:16:47;;;;;;;11.77;3.30;;;;;;;;;;1432926;41;20714;-80
2021/04/21 15:17:51;;;;;;;22.30;4.20;;;;;;;;;;1435748;41;20461;-80
2021/04/21 15:18:56;;;;;;;15.82;4.15;;;;;;;;;;1435769;41;20434;-80
2021/04/21 15:19:57;;;;;;;21.50;3.80;;;;;;;;;;1431096;41;20431;-80